Time,TemperatureF,DewpointF,PressureIn,WindDirection,WindDirectionDegrees,WindSpeedMPH,WindSpeedGustMPH,Humidity,HourlyPrecipIn,Conditions,Clouds,dailyrainin,SoftwareType,DateUTC
2013-10-14 00:03:00,63.1,57.6,30.15,West,260,0.0,4.0,82,0.00,,,0.00,meteohub,2013-10-13 22:03:00,
2013-10-14 00:08:00,63.1,57.6,30.15,West,260,0.0,4.0,82,0.00,,,0.00,meteohub,2013-10-13 22:08:00,
2013-10-14 00:13:00,63.1,57.6,30.15,West,261,3.0,4.0,82,0.00,,,0.00,meteohub,2013-10-13 22:13:00,
2013-10-14 00:18:00,63.3,57.7,30.15,West,261,1.0,4.0,82,0.00,,,0.00,meteohub,2013-10-13 22:18:00,
2013-10-14 00:23:00,63.3,57.4,30.15,West,261,0.0,4.0,81,0.00,,,0.00,meteohub,2013-10-13 22:23:00,
2013-10-14 00:28:00,63.3,57.4,30.15,West,261,0.0,4.0,81,0.00,,,0.00,meteohub,2013-10-13 22:28:00,
2013-10-14 00:33:00,63.3,57.4,30.15,West,262,0.0,4.0,81,0.00,,,0.00,meteohub,2013-10-13 22:33:00,
2013-10-14 00:38:00,63.1,57.2,30.15,West,262,3.0,5.0,81,0.00,,,0.00,meteohub,2013-10-13 22:38:00,
2013-10-14 00:44:00,63.0,57.0,30.15,West,268,5.0,5.0,81,0.00,,,0.00,meteohub,2013-10-13 22:44:00,
2013-10-14 00:49:00,62.8,56.8,30.15,West,281,2.0,5.0,81,0.00,,,0.00,meteohub,2013-10-13 22:49:00,
2013-10-14 00:54:00,62.8,56.8,30.15,WNW,282,0.0,6.0,81,0.00,,,0.00,meteohub,2013-10-13 22:54:00,
2013-10-14 00:59:00,62.6,56.7,30.15,WNW,282,0.0,6.0,81,0.00,,,0.00,meteohub,2013-10-13 22:59:00,
2013-10-14 01:04:00,62.4,56.5,30.15,West,281,2.0,4.0,81,0.00,,,0.00,meteohub,2013-10-13 23:04:00,
2013-10-14 01:09:00,62.4,56.5,30.15,West,281,0.0,4.0,81,0.00,,,0.00,meteohub,2013-10-13 23:09:00,
2013-10-14 01:14:00,62.4,56.8,30.15,WNW,282,0.0,4.0,82,0.00,,,0.00,meteohub,2013-10-13 23:14:00,
2013-10-14 01:19:00,62.2,56.7,30.15,WNW,282,0.0,4.0,82,0.00,,,0.00,meteohub,2013-10-13 23:19:00,
2013-10-14 01:24:00,62.2,56.7,30.15,WNW,282,0.0,3.0,82,0.00,,,0.00,meteohub,2013-10-13 23:24:00,
2013-10-14 01:29:00,62.2,56.7,30.15,West,281,2.0,3.0,82,0.00,,,0.00,meteohub,2013-10-13 23:29:00,
2013-10-14 01:34:00,62.1,56.5,30.15,WNW,282,3.0,3.0,82,0.00,,,0.00,meteohub,2013-10-13 23:34:00,
2013-10-14 01:39:00,62.1,56.5,30.15,WNW,282,1.0,4.0,82,0.00,,,0.00,meteohub,2013-10-13 23:39:00,
2013-10-14 01:44:00,62.1,56.5,30.15,WNW,282,2.0,4.0,82,0.00,,,0.00,meteohub,2013-10-13 23:44:00,
2013-10-14 01:50:00,62.1,56.1,30.15,WNW,282,0.0,4.0,81,0.00,,,0.00,meteohub,2013-10-13 23:50:00,
2013-10-14 01:55:00,62.1,56.1,30.15,WNW,282,0.0,4.0,81,0.00,,,0.00,meteohub,2013-10-13 23:55:00,
2013-10-14 02:00:00,62.1,56.5,30.15,WNW,282,0.0,4.0,82,0.00,,,0.00,meteohub,2013-10-14 00:00:00,
2013-10-14 02:05:00,61.9,56.3,30.15,West,281,0.0,4.0,82,0.00,,,0.00,meteohub,2013-10-14 00:05:00,
2013-10-14 02:10:00,61.9,56.3,30.15,West,281,2.0,4.0,82,0.00,,,0.00,meteohub,2013-10-14 00:10:00,
2013-10-14 02:15:00,61.5,55.9,30.15,WNW,282,2.0,4.0,82,0.00,,,0.00,meteohub,2013-10-14 00:15:00,
2013-10-14 02:20:00,61.3,55.8,30.15,WNW,282,0.0,4.0,82,0.00,,,0.00,meteohub,2013-10-14 00:20:00,
2013-10-14 02:25:00,61.3,55.8,30.14,WNW,282,2.0,4.0,82,0.00,,,0.00,meteohub,2013-10-14 00:25:00,
2013-10-14 02:30:00,61.2,55.6,30.14,WNW,282,3.0,4.0,82,0.00,,,0.00,meteohub,2013-10-14 00:30:00,
2013-10-14 02:35:00,61.0,55.8,30.14,WNW,282,0.0,4.0,83,0.00,,,0.00,meteohub,2013-10-14 00:35:00,
2013-10-14 02:40:00,60.6,55.4,30.14,WNW,282,0.0,4.0,83,0.00,,,0.00,meteohub,2013-10-14 00:40:00,
2013-10-14 02:45:00,60.6,55.4,30.14,WNW,282,1.0,4.0,83,0.00,,,0.00,meteohub,2013-10-14 00:45:00,
2013-10-14 02:50:00,60.6,55.4,30.14,WNW,282,2.0,4.0,83,0.00,,,0.00,meteohub,2013-10-14 00:50:00,
2013-10-14 02:55:00,60.6,55.8,30.14,WNW,282,0.0,4.0,84,0.00,,,0.00,meteohub,2013-10-14 00:55:00,
2013-10-14 03:01:00,60.6,55.4,30.14,West,281,3.0,4.0,83,0.00,,,0.00,meteohub,2013-10-14 01:01:00,
2013-10-14 03:06:00,60.4,55.2,30.14,WNW,282,0.0,4.0,83,0.00,,,0.00,meteohub,2013-10-14 01:06:00,
2013-10-14 03:11:00,60.3,55.0,30.14,WNW,282,1.0,4.0,83,0.00,,,0.00,meteohub,2013-10-14 01:11:00,
2013-10-14 03:16:00,60.3,55.4,30.14,West,281,0.0,4.0,84,0.00,,,0.00,meteohub,2013-10-14 01:16:00,
2013-10-14 03:21:00,60.3,55.4,30.14,WNW,282,0.0,4.0,84,0.00,,,0.00,meteohub,2013-10-14 01:21:00,
2013-10-14 03:26:00,60.1,55.2,30.13,WNW,282,2.0,3.0,84,0.00,,,0.00,meteohub,2013-10-14 01:26:00,
2013-10-14 03:31:00,60.1,55.2,30.13,WNW,282,0.0,4.0,84,0.00,,,0.00,meteohub,2013-10-14 01:31:00,
2013-10-14 03:36:00,59.9,55.0,30.13,West,281,2.0,4.0,84,0.00,,,0.00,meteohub,2013-10-14 01:36:00,
2013-10-14 03:41:00,59.9,55.0,30.13,West,281,3.0,4.0,84,0.00,,,0.00,meteohub,2013-10-14 01:41:00,
2013-10-14 03:46:00,60.1,55.2,30.13,WNW,282,0.0,4.0,84,0.00,,,0.00,meteohub,2013-10-14 01:46:00,
2013-10-14 03:51:00,60.1,55.2,30.13,West,281,0.0,4.0,84,0.00,,,0.00,meteohub,2013-10-14 01:51:00,
2013-10-14 03:56:00,60.1,55.2,30.13,WNW,282,0.0,4.0,84,0.00,,,0.00,meteohub,2013-10-14 01:56:00,
2013-10-14 04:01:00,59.7,54.9,30.13,WNW,282,3.0,5.0,84,0.00,,,0.00,meteohub,2013-10-14 02:01:00,
2013-10-14 04:06:00,59.5,54.7,30.13,West,281,3.0,5.0,84,0.00,,,0.00,meteohub,2013-10-14 02:06:00,
2013-10-14 04:12:00,59.5,55.0,30.12,WNW,282,0.0,5.0,85,0.00,,,0.00,meteohub,2013-10-14 02:12:00,
2013-10-14 04:17:00,59.2,54.7,30.12,West,281,2.0,4.0,85,0.00,,,0.00,meteohub,2013-10-14 02:17:00,
2013-10-14 04:22:00,59.2,54.7,30.12,West,281,0.0,4.0,85,0.00,,,0.00,meteohub,2013-10-14 02:22:00,
2013-10-14 04:27:00,59.2,54.7,30.12,WNW,282,2.0,4.0,85,0.00,,,0.00,meteohub,2013-10-14 02:27:00,
2013-10-14 04:32:00,59.0,54.5,30.12,West,281,1.0,4.0,85,0.00,,,0.00,meteohub,2013-10-14 02:32:00,
2013-10-14 04:37:00,58.8,54.7,30.12,WNW,282,0.0,4.0,86,0.00,,,0.00,meteohub,2013-10-14 02:37:00,
2013-10-14 04:42:00,58.8,54.7,30.13,WNW,282,2.0,4.0,86,0.00,,,0.00,meteohub,2013-10-14 02:42:00,
2013-10-14 04:47:00,58.8,54.7,30.13,WNW,282,0.0,4.0,86,0.00,,,0.00,meteohub,2013-10-14 02:47:00,
2013-10-14 04:52:00,58.8,54.7,30.13,WNW,282,4.0,4.0,86,0.00,,,0.00,meteohub,2013-10-14 02:52:00,
2013-10-14 04:57:00,58.8,54.7,30.13,WNW,293,4.0,4.0,86,0.00,,,0.00,meteohub,2013-10-14 02:57:00,
2013-10-14 05:02:00,58.8,54.7,30.13,WNW,303,4.0,7.0,86,0.00,,,0.00,meteohub,2013-10-14 03:02:00,
2013-10-14 05:07:00,58.8,54.7,30.13,NW,307,4.0,7.0,86,0.00,,,0.00,meteohub,2013-10-14 03:07:00,
2013-10-14 05:12:00,58.6,54.5,30.13,NW,308,4.0,7.0,86,0.00,,,0.00,meteohub,2013-10-14 03:12:00,
2013-10-14 05:17:00,58.6,54.5,30.13,NW,308,4.0,9.0,86,0.00,,,0.00,meteohub,2013-10-14 03:17:00,
2013-10-14 05:22:00,58.5,54.3,30.13,NW,308,5.0,9.0,86,0.00,,,0.00,meteohub,2013-10-14 03:22:00,
2013-10-14 05:27:00,58.5,54.3,30.13,NW,308,3.0,7.0,86,0.00,,,0.00,meteohub,2013-10-14 03:27:00,
2013-10-14 05:32:00,58.3,54.1,30.13,NW,309,4.0,7.0,86,0.00,,,0.00,meteohub,2013-10-14 03:32:00,
2013-10-14 05:37:00,58.3,54.1,30.13,NW,308,1.0,6.0,86,0.00,,,0.00,meteohub,2013-10-14 03:37:00,
2013-10-14 05:43:00,58.3,54.1,30.13,NW,308,0.0,6.0,86,0.00,,,0.00,meteohub,2013-10-14 03:43:00,
2013-10-14 05:48:00,58.1,54.0,30.13,NW,308,0.0,6.0,86,0.00,,,0.00,meteohub,2013-10-14 03:48:00,
2013-10-14 05:53:00,58.1,54.0,30.13,NW,309,4.0,5.0,86,0.00,,,0.00,meteohub,2013-10-14 03:53:00,
2013-10-14 05:58:00,58.1,54.0,30.13,NW,309,0.0,4.0,86,0.00,,,0.00,meteohub,2013-10-14 03:58:00,
2013-10-14 06:01:00,57.9,53.8,30.13,NW,308,0.0,4.0,86,0.00,,,0.00,meteohub,2013-10-14 04:01:00,
2013-10-14 06:02:00,57.9,53.8,30.13,NW,309,0.0,4.0,86,0.00,,,0.00,meteohub,2013-10-14 04:02:00,
2013-10-14 06:03:00,57.9,53.8,30.13,NW,309,3.0,4.0,86,0.00,,,0.00,meteohub,2013-10-14 04:03:00,
2013-10-14 06:08:00,57.9,53.8,30.13,NW,308,0.0,4.0,86,0.00,,,0.00,meteohub,2013-10-14 04:08:00,
2013-10-14 06:13:00,57.7,53.6,30.13,NW,308,2.0,5.0,86,0.00,,,0.00,meteohub,2013-10-14 04:13:00,
2013-10-14 06:18:00,57.7,54.0,30.13,NW,308,0.0,5.0,87,0.00,,,0.00,meteohub,2013-10-14 04:18:00,
2013-10-14 06:23:00,57.7,54.0,30.13,NW,309,1.0,5.0,87,0.00,,,0.00,meteohub,2013-10-14 04:23:00,
2013-10-14 06:28:00,57.7,54.0,30.14,NW,309,3.0,5.0,87,0.00,,,0.00,meteohub,2013-10-14 04:28:00,
2013-10-14 06:33:00,57.7,54.0,30.13,NW,309,0.0,5.0,87,0.00,,,0.00,meteohub,2013-10-14 04:33:00,
2013-10-14 06:38:00,57.7,54.0,30.13,NW,309,2.0,5.0,87,0.00,,,0.00,meteohub,2013-10-14 04:38:00,
2013-10-14 06:43:00,57.7,54.0,30.13,NW,308,3.0,4.0,87,0.00,,,0.00,meteohub,2013-10-14 04:43:00,
2013-10-14 06:48:00,57.7,54.0,30.14,NW,309,4.0,4.0,87,0.00,,,0.00,meteohub,2013-10-14 04:48:00,
2013-10-14 06:53:00,57.6,53.4,30.13,NW,308,2.0,6.0,86,0.00,,,0.00,meteohub,2013-10-14 04:53:00,
2013-10-14 06:59:00,57.6,53.8,30.14,NW,309,3.0,6.0,87,0.00,,,0.00,meteohub,2013-10-14 04:59:00,
2013-10-14 07:04:00,57.6,53.8,30.14,NW,309,4.0,6.0,87,0.00,,,0.00,meteohub,2013-10-14 05:04:00,
2013-10-14 07:09:00,57.6,53.8,30.14,NW,308,3.0,6.0,87,0.00,,,0.00,meteohub,2013-10-14 05:09:00,
2013-10-14 07:14:00,57.6,53.4,30.14,NW,309,4.0,7.0,86,0.00,,,0.00,meteohub,2013-10-14 05:14:00,
2013-10-14 07:19:00,57.6,53.4,30.14,NW,309,4.0,7.0,86,0.00,,,0.00,meteohub,2013-10-14 05:19:00,
2013-10-14 07:24:00,57.6,53.4,30.14,NW,309,2.0,6.0,86,0.00,,,0.00,meteohub,2013-10-14 05:24:00,
2013-10-14 07:29:00,57.4,53.2,30.14,NW,308,7.0,7.0,86,0.00,,,0.00,meteohub,2013-10-14 05:29:00,
2013-10-14 07:34:00,57.4,53.6,30.14,NW,309,4.0,7.0,87,0.00,,,0.00,meteohub,2013-10-14 05:34:00,
2013-10-14 07:39:00,57.4,53.6,30.14,NW,309,5.0,7.0,87,0.00,,,0.00,meteohub,2013-10-14 05:39:00,
2013-10-14 07:44:00,57.4,53.6,30.15,NW,308,5.0,7.0,87,0.00,,,0.00,meteohub,2013-10-14 05:44:00,
2013-10-14 07:49:00,57.4,53.2,30.14,NW,309,3.0,6.0,86,0.00,,,0.00,meteohub,2013-10-14 05:49:00,
2013-10-14 07:54:00,57.6,53.4,30.15,NW,309,3.0,6.0,86,0.00,,,0.00,meteohub,2013-10-14 05:54:00,
2013-10-14 08:00:00,57.6,53.4,30.15,NW,309,5.0,6.0,86,0.00,,,0.00,meteohub,2013-10-14 06:00:00,
2013-10-14 08:05:00,57.7,53.6,30.15,NW,309,0.0,7.0,86,0.00,,,0.00,meteohub,2013-10-14 06:05:00,
2013-10-14 08:10:00,57.7,53.6,30.15,NW,309,0.0,7.0,86,0.00,,,0.00,meteohub,2013-10-14 06:10:00,
2013-10-14 08:15:00,57.9,53.8,30.15,NW,309,0.0,7.0,86,0.00,,,0.00,meteohub,2013-10-14 06:15:00,
2013-10-14 08:20:00,58.3,54.1,30.15,NW,309,3.0,6.0,86,0.00,,,0.00,meteohub,2013-10-14 06:20:00,
2013-10-14 08:25:00,58.3,53.8,30.15,NW,309,0.0,6.0,85,0.00,,,0.00,meteohub,2013-10-14 06:25:00,
2013-10-14 08:30:00,58.5,54.0,30.15,NW,311,0.0,5.0,85,0.00,,,0.00,meteohub,2013-10-14 06:30:00,
2013-10-14 08:35:00,58.6,54.1,30.15,NW,311,3.0,6.0,85,0.00,,,0.00,meteohub,2013-10-14 06:35:00,
2013-10-14 08:40:00,59.0,54.5,30.16,NW,311,0.0,6.0,85,0.00,,,0.00,meteohub,2013-10-14 06:40:00,
2013-10-14 08:45:00,59.2,54.3,30.16,NW,311,3.0,6.0,84,0.00,,,0.00,meteohub,2013-10-14 06:45:00,
2013-10-14 08:50:00,59.2,54.3,30.16,NW,311,4.0,6.0,84,0.00,,,0.00,meteohub,2013-10-14 06:50:00,
2013-10-14 08:55:00,59.4,54.1,30.16,NW,313,3.0,6.0,83,0.00,,,0.00,meteohub,2013-10-14 06:55:00,
2013-10-14 09:00:00,59.5,54.3,30.16,NW,318,4.0,6.0,83,0.00,,,0.00,meteohub,2013-10-14 07:00:00,
2013-10-14 09:05:00,59.7,54.5,30.16,NW,318,1.0,7.0,83,0.00,,,0.00,meteohub,2013-10-14 07:05:00,
2013-10-14 09:10:00,60.1,54.5,30.16,NW,318,4.0,7.0,82,0.00,,,0.00,meteohub,2013-10-14 07:10:00,
2013-10-14 09:15:00,60.3,54.7,30.16,NW,318,3.0,7.0,82,0.00,,,0.00,meteohub,2013-10-14 07:15:00,
2013-10-14 09:20:00,60.4,54.5,30.16,NW,317,3.0,6.0,81,0.00,,,0.00,meteohub,2013-10-14 07:20:00,
2013-10-14 09:26:00,60.6,54.7,30.16,NW,318,3.0,6.0,81,0.00,,,0.00,meteohub,2013-10-14 07:26:00,
2013-10-14 09:31:00,61.2,54.9,30.16,NW,317,4.0,6.0,80,0.00,,,0.00,meteohub,2013-10-14 07:31:00,
2013-10-14 09:36:00,61.3,55.0,30.16,NW,318,3.0,6.0,80,0.00,,,0.00,meteohub,2013-10-14 07:36:00,
2013-10-14 09:41:00,61.9,54.9,30.16,NW,318,0.0,5.0,78,0.00,,,0.00,meteohub,2013-10-14 07:41:00,
2013-10-14 09:46:00,62.2,55.2,30.16,NW,318,0.0,5.0,78,0.00,,,0.00,meteohub,2013-10-14 07:46:00,
2013-10-14 09:51:00,62.4,55.0,30.16,NW,317,2.0,4.0,77,0.00,,,0.00,meteohub,2013-10-14 07:51:00,
2013-10-14 09:56:00,63.0,55.6,30.16,NW,318,1.0,4.0,77,0.00,,,0.00,meteohub,2013-10-14 07:56:00,
2013-10-14 10:01:00,63.3,55.9,30.15,NW,318,3.0,4.0,77,0.00,,,0.00,meteohub,2013-10-14 08:01:00,
2013-10-14 10:06:00,63.5,55.8,30.16,NW,318,5.0,6.0,76,0.00,,,0.00,meteohub,2013-10-14 08:06:00,
2013-10-14 10:11:00,63.7,55.6,30.16,NW,315,0.0,7.0,75,0.00,,,0.00,meteohub,2013-10-14 08:11:00,
2013-10-14 10:16:00,64.0,55.9,30.16,NW,315,4.0,7.0,75,0.00,,,0.00,meteohub,2013-10-14 08:16:00,
2013-10-14 10:21:00,64.0,55.6,30.16,NW,316,3.0,7.0,74,0.00,,,0.00,meteohub,2013-10-14 08:21:00,
2013-10-14 10:27:00,64.6,56.1,30.16,NW,316,5.0,7.0,74,0.00,,,0.00,meteohub,2013-10-14 08:27:00,
2013-10-14 10:32:00,65.1,56.3,30.16,NW,314,2.0,7.0,73,0.00,,,0.00,meteohub,2013-10-14 08:32:00,
2013-10-14 10:37:00,65.3,56.5,30.15,WNW,303,5.0,6.0,73,0.00,,,0.00,meteohub,2013-10-14 08:37:00,
2013-10-14 10:42:00,65.5,55.8,30.16,WNW,302,5.0,6.0,71,0.00,,,0.00,meteohub,2013-10-14 08:42:00,
2013-10-14 10:47:00,65.8,56.1,30.16,WNW,300,5.0,6.0,71,0.00,,,0.00,meteohub,2013-10-14 08:47:00,
2013-10-14 10:52:00,65.8,56.1,30.16,WNW,301,5.0,7.0,71,0.00,,,0.00,meteohub,2013-10-14 08:52:00,
2013-10-14 10:57:00,66.4,57.0,30.15,NW,307,2.0,7.0,72,0.00,,,0.00,meteohub,2013-10-14 08:57:00,
2013-10-14 11:02:00,66.9,56.8,30.15,NW,306,3.0,7.0,70,0.00,,,0.00,meteohub,2013-10-14 09:02:00,
2013-10-14 11:07:00,67.3,57.2,30.15,NW,305,3.0,7.0,70,0.00,,,0.00,meteohub,2013-10-14 09:07:00,
2013-10-14 11:12:00,67.5,57.0,30.15,NW,306,3.0,6.0,69,0.00,,,0.00,meteohub,2013-10-14 09:12:00,
2013-10-14 11:17:00,68.0,57.4,30.15,NW,307,4.0,5.0,69,0.00,,,0.00,meteohub,2013-10-14 09:17:00,
2013-10-14 11:22:00,68.2,57.2,30.15,NW,307,0.0,5.0,68,0.00,,,0.00,meteohub,2013-10-14 09:22:00,
2013-10-14 11:27:00,68.7,57.4,30.15,NW,309,4.0,5.0,67,0.00,,,0.00,meteohub,2013-10-14 09:27:00,
2013-10-14 11:32:00,69.4,57.9,30.15,NW,309,4.0,5.0,67,0.00,,,0.00,meteohub,2013-10-14 09:32:00,
2013-10-14 11:37:00,70.2,58.6,30.15,NW,309,5.0,5.0,67,0.00,,,0.00,meteohub,2013-10-14 09:37:00,
2013-10-14 11:42:00,70.0,57.7,30.14,NW,310,0.0,5.0,65,0.00,,,0.00,meteohub,2013-10-14 09:42:00,
2013-10-14 11:47:00,70.3,58.1,30.14,NW,309,1.0,5.0,65,0.00,,,0.00,meteohub,2013-10-14 09:47:00,
2013-10-14 11:52:00,71.2,58.5,30.14,NW,310,2.0,5.0,64,0.00,,,0.00,meteohub,2013-10-14 09:52:00,
2013-10-14 11:57:00,71.2,57.9,30.14,NW,309,3.0,5.0,63,0.00,,,0.00,meteohub,2013-10-14 09:57:00,
2013-10-14 12:02:00,71.1,57.4,30.14,NW,309,4.0,5.0,62,0.00,,,0.00,meteohub,2013-10-14 10:02:00,
2013-10-14 12:07:00,72.0,58.6,30.14,NW,309,0.0,5.0,63,0.00,,,0.00,meteohub,2013-10-14 10:07:00,
2013-10-14 12:12:00,72.5,58.8,30.14,NW,310,0.0,5.0,62,0.00,,,0.00,meteohub,2013-10-14 10:12:00,
2013-10-14 12:17:00,72.7,58.5,30.14,NW,310,0.0,5.0,61,0.00,,,0.00,meteohub,2013-10-14 10:17:00,
2013-10-14 12:22:00,72.3,57.2,30.14,NW,320,2.0,4.0,59,0.00,,,0.00,meteohub,2013-10-14 10:22:00,
2013-10-14 12:27:00,72.9,57.7,30.14,NW,320,4.0,5.0,59,0.00,,,0.00,meteohub,2013-10-14 10:27:00,
2013-10-14 12:32:00,73.2,58.5,30.13,NW,321,0.0,5.0,60,0.00,,,0.00,meteohub,2013-10-14 10:32:00,
2013-10-14 12:37:00,73.4,57.7,30.13,NW,321,0.0,4.0,58,0.00,,,0.00,meteohub,2013-10-14 10:37:00,
2013-10-14 12:42:00,73.4,58.3,30.13,NW,321,0.0,4.0,59,0.00,,,0.00,meteohub,2013-10-14 10:42:00,
2013-10-14 12:47:00,74.5,58.3,30.13,NW,321,3.0,4.0,57,0.00,,,0.00,meteohub,2013-10-14 10:47:00,
2013-10-14 12:52:00,74.7,58.5,30.13,NW,321,0.0,4.0,57,0.00,,,0.00,meteohub,2013-10-14 10:52:00,
2013-10-14 12:57:00,74.7,57.9,30.12,NW,320,1.0,4.0,56,0.00,,,0.00,meteohub,2013-10-14 10:57:00,
2013-10-14 13:02:00,74.5,58.3,30.12,NW,321,0.0,4.0,57,0.00,,,0.00,meteohub,2013-10-14 11:02:00,
2013-10-14 13:07:00,75.0,58.3,30.12,NW,321,0.0,4.0,56,0.00,,,0.00,meteohub,2013-10-14 11:07:00,
2013-10-14 13:12:00,75.7,57.9,30.12,NW,321,0.0,4.0,54,0.00,,,0.00,meteohub,2013-10-14 11:12:00,
2013-10-14 13:17:00,75.4,57.6,30.12,NW,321,1.0,4.0,54,0.00,,,0.00,meteohub,2013-10-14 11:17:00,
2013-10-14 13:22:00,75.2,57.4,30.12,NW,320,1.0,4.0,54,0.00,,,0.00,meteohub,2013-10-14 11:22:00,
2013-10-14 13:27:00,75.2,57.4,30.12,NW,321,0.0,4.0,54,0.00,,,0.00,meteohub,2013-10-14 11:27:00,
2013-10-14 13:32:00,75.9,57.0,30.11,NW,320,0.0,4.0,52,0.00,,,0.00,meteohub,2013-10-14 11:32:00,
2013-10-14 13:38:00,76.6,57.2,30.11,NW,320,3.0,4.0,51,0.00,,,0.00,meteohub,2013-10-14 11:38:00,
2013-10-14 13:43:00,76.5,56.5,30.11,NW,313,3.0,3.0,50,0.00,,,0.00,meteohub,2013-10-14 11:43:00,
2013-10-14 13:48:00,75.9,56.5,30.11,NW,313,0.0,5.0,51,0.00,,,0.00,meteohub,2013-10-14 11:48:00,
2013-10-14 13:53:00,76.8,56.8,30.11,NW,313,0.0,5.0,50,0.00,,,0.00,meteohub,2013-10-14 11:53:00,
2013-10-14 13:58:00,76.6,53.8,30.11,NW,312,3.0,5.0,45,0.00,,,0.00,meteohub,2013-10-14 11:58:00,
2013-10-14 14:03:00,76.8,54.5,30.10,NW,311,1.0,4.0,46,0.00,,,0.00,meteohub,2013-10-14 12:03:00,
2013-10-14 14:08:00,77.2,54.1,30.10,WNW,286,0.0,6.0,45,0.00,,,0.00,meteohub,2013-10-14 12:08:00,
2013-10-14 14:13:00,78.1,54.3,30.10,WNW,286,0.0,6.0,44,0.00,,,0.00,meteohub,2013-10-14 12:13:00,
2013-10-14 14:18:00,77.9,53.6,30.11,WNW,284,0.0,6.0,43,0.00,,,0.00,meteohub,2013-10-14 12:18:00,
2013-10-14 14:23:00,78.1,51.8,30.10,SW,217,6.0,7.0,40,0.00,,,0.00,meteohub,2013-10-14 12:23:00,
2013-10-14 14:28:00,78.3,53.2,30.10,SSW,208,4.0,8.0,42,0.00,,,0.00,meteohub,2013-10-14 12:28:00,
2013-10-14 14:33:00,78.4,54.1,30.10,SSW,207,0.0,9.0,43,0.00,,,0.00,meteohub,2013-10-14 12:33:00,
2013-10-14 14:39:00,77.9,54.3,30.10,SSW,207,1.0,9.0,44,0.00,,,0.00,meteohub,2013-10-14 12:39:00,
2013-10-14 14:44:00,78.1,54.3,30.10,SSW,206,3.0,8.0,44,0.00,,,0.00,meteohub,2013-10-14 12:44:00,
2013-10-14 14:49:00,78.1,54.3,30.10,SSW,206,0.0,5.0,44,0.00,,,0.00,meteohub,2013-10-14 12:49:00,
2013-10-14 14:54:00,78.6,54.3,30.10,SSW,205,0.0,5.0,43,0.00,,,0.00,meteohub,2013-10-14 12:54:00,
2013-10-14 14:59:00,78.1,53.1,30.09,SSW,209,3.0,5.0,42,0.00,,,0.00,meteohub,2013-10-14 12:59:00,
2013-10-14 15:04:00,78.1,53.1,30.09,SSW,209,4.0,7.0,42,0.00,,,0.00,meteohub,2013-10-14 13:04:00,
2013-10-14 15:09:00,77.2,53.6,30.09,SSW,213,3.0,7.0,44,0.00,,,0.00,meteohub,2013-10-14 13:09:00,
2013-10-14 15:14:00,77.5,52.7,30.09,SSW,213,4.0,7.0,42,0.00,,,0.00,meteohub,2013-10-14 13:14:00,
2013-10-14 15:19:00,78.1,53.8,30.09,SSW,212,1.0,6.0,43,0.00,,,0.00,meteohub,2013-10-14 13:19:00,
2013-10-14 15:24:00,78.1,53.8,30.09,SSW,213,0.0,6.0,43,0.00,,,0.00,meteohub,2013-10-14 13:24:00,
2013-10-14 15:29:00,78.4,54.1,30.09,SSW,213,0.0,6.0,43,0.00,,,0.00,meteohub,2013-10-14 13:29:00,
2013-10-14 15:34:00,78.4,54.7,30.09,SSW,213,2.0,6.0,44,0.00,,,0.00,meteohub,2013-10-14 13:34:00,
2013-10-14 15:39:00,78.3,54.5,30.09,SSW,213,0.0,6.0,44,0.00,,,0.00,meteohub,2013-10-14 13:39:00,
2013-10-14 15:44:00,78.3,53.2,30.09,SSW,212,0.0,5.0,42,0.00,,,0.00,meteohub,2013-10-14 13:44:00,
2013-10-14 15:50:00,78.3,53.2,30.09,SSW,207,3.0,6.0,42,0.00,,,0.00,meteohub,2013-10-14 13:50:00,
2013-10-14 15:55:00,78.3,54.0,30.09,SSW,212,0.0,9.0,43,0.00,,,0.00,meteohub,2013-10-14 13:55:00,
2013-10-14 16:00:00,78.3,54.5,30.09,SSW,212,2.0,9.0,44,0.00,,,0.00,meteohub,2013-10-14 14:00:00,
2013-10-14 16:05:00,78.1,54.3,30.09,SW,214,4.0,9.0,44,0.00,,,0.00,meteohub,2013-10-14 14:05:00,
2013-10-14 16:10:00,77.9,54.3,30.09,SW,215,4.0,8.0,44,0.00,,,0.00,meteohub,2013-10-14 14:10:00,
2013-10-14 16:15:00,78.1,54.3,30.09,SW,215,3.0,8.0,44,0.00,,,0.00,meteohub,2013-10-14 14:15:00,
2013-10-14 16:20:00,77.7,54.1,30.09,WSW,237,2.0,8.0,44,0.00,,,0.00,meteohub,2013-10-14 14:20:00,
2013-10-14 16:25:00,77.9,54.3,30.09,WSW,237,4.0,8.0,44,0.00,,,0.00,meteohub,2013-10-14 14:25:00,
2013-10-14 16:30:00,78.3,55.2,30.09,SW,232,0.0,8.0,45,0.00,,,0.00,meteohub,2013-10-14 14:30:00,
2013-10-14 16:35:00,78.1,55.6,30.09,SW,228,1.0,9.0,46,0.00,,,0.00,meteohub,2013-10-14 14:35:00,
2013-10-14 16:40:00,77.5,56.3,30.09,WSW,250,4.0,9.0,48,0.00,,,0.00,meteohub,2013-10-14 14:40:00,
2013-10-14 16:45:00,77.4,56.7,30.09,SW,235,1.0,12.0,49,0.00,,,0.00,meteohub,2013-10-14 14:45:00,
2013-10-14 16:50:00,77.0,57.0,30.09,WSW,244,8.0,12.0,50,0.00,,,0.00,meteohub,2013-10-14 14:50:00,
2013-10-14 16:55:00,76.6,56.1,30.09,WSW,243,5.0,12.0,49,0.00,,,0.00,meteohub,2013-10-14 14:55:00,
2013-10-14 17:01:00,77.2,56.5,30.09,SW,231,9.0,10.0,49,0.00,,,0.00,meteohub,2013-10-14 15:01:00,
2013-10-14 17:06:00,76.8,55.0,30.09,SW,214,6.0,11.0,47,0.00,,,0.00,meteohub,2013-10-14 15:06:00,
2013-10-14 17:11:00,76.6,54.3,30.09,SW,219,3.0,11.0,46,0.00,,,0.00,meteohub,2013-10-14 15:11:00,
2013-10-14 17:16:00,76.5,54.7,30.09,SW,224,2.0,11.0,47,0.00,,,0.00,meteohub,2013-10-14 15:16:00,
2013-10-14 17:21:00,76.1,53.8,30.09,SSW,211,0.0,11.0,46,0.00,,,0.00,meteohub,2013-10-14 15:21:00,
2013-10-14 17:26:00,75.9,54.3,30.09,SW,216,4.0,12.0,47,0.00,,,0.00,meteohub,2013-10-14 15:26:00,
2013-10-14 17:31:00,75.6,53.2,30.09,SW,223,3.0,12.0,46,0.00,,,0.00,meteohub,2013-10-14 15:31:00,
2013-10-14 17:36:00,75.4,53.8,30.09,SW,224,9.0,12.0,47,0.00,,,0.00,meteohub,2013-10-14 15:36:00,
2013-10-14 17:41:00,75.2,54.1,30.09,SW,223,4.0,12.0,48,0.00,,,0.00,meteohub,2013-10-14 15:41:00,
2013-10-14 17:46:00,75.0,54.0,30.09,WSW,254,2.0,12.0,48,0.00,,,0.00,meteohub,2013-10-14 15:46:00,
2013-10-14 17:52:00,75.0,54.5,30.09,WSW,244,2.0,9.0,49,0.00,,,0.00,meteohub,2013-10-14 15:52:00,
2013-10-14 17:57:00,74.7,54.9,30.09,WSW,257,3.0,7.0,50,0.00,,,0.00,meteohub,2013-10-14 15:57:00,
2013-10-14 18:02:00,74.1,55.4,30.09,WSW,257,5.0,9.0,52,0.00,,,0.00,meteohub,2013-10-14 16:02:00,
2013-10-14 18:07:00,73.9,55.8,30.09,WSW,257,0.0,9.0,53,0.00,,,0.00,meteohub,2013-10-14 16:07:00,
2013-10-14 18:12:00,73.6,55.9,30.09,WSW,257,2.0,8.0,54,0.00,,,0.00,meteohub,2013-10-14 16:12:00,
2013-10-14 18:17:00,73.2,56.1,30.09,WSW,258,1.0,8.0,55,0.00,,,0.00,meteohub,2013-10-14 16:17:00,
2013-10-14 18:22:00,73.0,55.9,30.09,West,259,2.0,5.0,55,0.00,,,0.00,meteohub,2013-10-14 16:22:00,
2013-10-14 18:27:00,72.9,55.8,30.09,SW,234,0.0,7.0,55,0.00,,,0.00,meteohub,2013-10-14 16:27:00,
2013-10-14 18:32:00,72.7,55.6,30.09,SW,230,0.0,7.0,55,0.00,,,0.00,meteohub,2013-10-14 16:32:00,
2013-10-14 18:37:00,72.5,55.9,30.09,SW,227,0.0,7.0,56,0.00,,,0.00,meteohub,2013-10-14 16:37:00,
2013-10-14 18:42:00,72.3,55.8,30.09,SW,226,2.0,6.0,56,0.00,,,0.00,meteohub,2013-10-14 16:42:00,
2013-10-14 18:47:00,72.3,55.8,30.09,SW,226,0.0,6.0,56,0.00,,,0.00,meteohub,2013-10-14 16:47:00,
2013-10-14 18:52:00,72.3,56.3,30.10,SW,226,2.0,6.0,57,0.00,,,0.00,meteohub,2013-10-14 16:52:00,
2013-10-14 18:57:00,72.1,56.1,30.10,SW,226,0.0,6.0,57,0.00,,,0.00,meteohub,2013-10-14 16:57:00,
2013-10-14 19:02:00,72.1,56.5,30.10,SW,226,0.0,4.0,58,0.00,,,0.00,meteohub,2013-10-14 17:02:00,
2013-10-14 19:07:00,72.0,56.8,30.10,SW,226,0.0,4.0,59,0.00,,,0.00,meteohub,2013-10-14 17:07:00,
2013-10-14 19:12:00,72.0,57.4,30.10,SW,226,1.0,4.0,60,0.00,,,0.00,meteohub,2013-10-14 17:12:00,
2013-10-14 19:17:00,71.8,57.6,30.11,SW,226,0.0,2.0,61,0.00,,,0.00,meteohub,2013-10-14 17:17:00,
2013-10-14 19:22:00,71.4,57.2,30.11,SW,226,0.0,3.0,61,0.00,,,0.00,meteohub,2013-10-14 17:22:00,
2013-10-14 19:27:00,71.4,57.7,30.11,SW,226,1.0,4.0,62,0.00,,,0.00,meteohub,2013-10-14 17:27:00,
2013-10-14 19:32:00,71.2,57.6,30.11,SW,226,0.0,5.0,62,0.00,,,0.00,meteohub,2013-10-14 17:32:00,
2013-10-14 19:37:00,71.1,57.7,30.11,SW,226,0.0,5.0,63,0.00,,,0.00,meteohub,2013-10-14 17:37:00,
2013-10-14 19:42:00,71.1,57.7,30.11,SW,226,0.0,5.0,63,0.00,,,0.00,meteohub,2013-10-14 17:42:00,
2013-10-14 19:47:00,70.9,58.1,30.11,SW,226,0.0,3.0,64,0.00,,,0.00,meteohub,2013-10-14 17:47:00,
2013-10-14 19:52:00,70.7,58.3,30.11,SW,226,2.0,3.0,65,0.00,,,0.00,meteohub,2013-10-14 17:52:00,
2013-10-14 19:57:00,70.5,58.1,30.11,SW,226,0.0,3.0,65,0.00,,,0.00,meteohub,2013-10-14 17:57:00,
2013-10-14 20:02:00,70.3,58.5,30.11,SW,226,0.0,3.0,66,0.00,,,0.00,meteohub,2013-10-14 18:02:00,
2013-10-14 20:07:00,70.3,58.8,30.12,SW,226,0.0,4.0,67,0.00,,,0.00,meteohub,2013-10-14 18:07:00,
2013-10-14 20:12:00,70.2,58.6,30.12,SW,226,0.0,4.0,67,0.00,,,0.00,meteohub,2013-10-14 18:12:00,
2013-10-14 20:18:00,70.0,59.0,30.12,SW,226,0.0,4.0,68,0.00,,,0.00,meteohub,2013-10-14 18:18:00,
2013-10-14 20:23:00,70.0,58.5,30.12,SW,226,0.0,4.0,67,0.00,,,0.00,meteohub,2013-10-14 18:23:00,
2013-10-14 20:28:00,69.8,58.8,30.12,SW,226,0.0,3.0,68,0.00,,,0.00,meteohub,2013-10-14 18:28:00,
2013-10-14 20:33:00,69.6,58.6,30.12,SW,226,0.0,2.0,68,0.00,,,0.00,meteohub,2013-10-14 18:33:00,
2013-10-14 20:38:00,69.4,58.8,30.12,SW,226,0.0,2.0,69,0.00,,,0.00,meteohub,2013-10-14 18:38:00,
2013-10-14 20:43:00,69.4,58.8,30.12,SW,226,0.0,2.0,69,0.00,,,0.00,meteohub,2013-10-14 18:43:00,
2013-10-14 20:48:00,69.1,58.5,30.12,SW,226,1.0,2.0,69,0.00,,,0.00,meteohub,2013-10-14 18:48:00,
2013-10-14 20:53:00,68.4,58.3,30.12,SW,226,0.0,2.0,70,0.00,,,0.00,meteohub,2013-10-14 18:53:00,
2013-10-14 20:58:00,67.8,58.5,30.12,SW,226,0.0,2.0,72,0.00,,,0.00,meteohub,2013-10-14 18:58:00,
2013-10-14 21:03:00,67.5,58.5,30.12,SW,226,0.0,2.0,73,0.00,,,0.00,meteohub,2013-10-14 19:03:00,
2013-10-14 21:08:00,67.3,58.3,30.12,SW,226,0.0,2.0,73,0.00,,,0.00,meteohub,2013-10-14 19:08:00,
2013-10-14 21:13:00,67.1,58.5,30.13,SW,226,0.0,2.0,74,0.00,,,0.00,meteohub,2013-10-14 19:13:00,
2013-10-14 21:18:00,67.3,58.6,30.13,SW,226,0.0,3.0,74,0.00,,,0.00,meteohub,2013-10-14 19:18:00,
2013-10-14 21:23:00,67.3,58.3,30.13,SW,226,1.0,3.0,73,0.00,,,0.00,meteohub,2013-10-14 19:23:00,
2013-10-14 21:29:00,67.3,58.3,30.13,SW,226,0.0,3.0,73,0.00,,,0.00,meteohub,2013-10-14 19:29:00,
2013-10-14 21:34:00,67.1,58.1,30.13,SW,226,0.0,3.0,73,0.00,,,0.00,meteohub,2013-10-14 19:34:00,
2013-10-14 21:39:00,66.9,58.3,30.13,SW,226,0.0,3.0,74,0.00,,,0.00,meteohub,2013-10-14 19:39:00,
2013-10-14 21:44:00,66.7,58.1,30.13,SW,226,0.0,3.0,74,0.00,,,0.00,meteohub,2013-10-14 19:44:00,
2013-10-14 21:49:00,67.1,58.8,30.13,SW,226,0.0,0.0,75,0.00,,,0.00,meteohub,2013-10-14 19:49:00,
2013-10-14 21:54:00,67.3,59.0,30.13,SW,226,0.0,3.0,75,0.00,,,0.00,meteohub,2013-10-14 19:54:00,
2013-10-14 21:59:00,67.5,58.8,30.13,SW,226,0.0,3.0,74,0.00,,,0.00,meteohub,2013-10-14 19:59:00,
2013-10-14 22:04:00,67.5,58.8,30.13,SW,226,0.0,3.0,74,0.00,,,0.00,meteohub,2013-10-14 20:04:00,
2013-10-14 22:09:00,67.5,58.8,30.13,SW,226,0.0,2.0,74,0.00,,,0.00,meteohub,2013-10-14 20:09:00,
2013-10-14 22:14:00,67.3,58.6,30.13,SW,226,0.0,2.0,74,0.00,,,0.00,meteohub,2013-10-14 20:14:00,
2013-10-14 22:19:00,67.3,59.0,30.13,SW,226,0.0,2.0,75,0.00,,,0.00,meteohub,2013-10-14 20:19:00,
2013-10-14 22:24:00,66.9,58.8,30.13,SW,226,0.0,1.0,75,0.00,,,0.00,meteohub,2013-10-14 20:24:00,
2013-10-14 22:29:00,66.9,58.8,30.13,SW,226,0.0,0.0,75,0.00,,,0.00,meteohub,2013-10-14 20:29:00,
2013-10-14 22:35:00,66.7,58.6,30.13,SW,226,0.0,0.0,75,0.00,,,0.00,meteohub,2013-10-14 20:35:00,
2013-10-14 22:40:00,66.6,58.5,30.14,SW,226,0.0,0.0,75,0.00,,,0.00,meteohub,2013-10-14 20:40:00,
2013-10-14 22:45:00,66.2,58.5,30.14,SW,226,0.0,0.0,76,0.00,,,0.00,meteohub,2013-10-14 20:45:00,
2013-10-14 22:50:00,66.0,58.3,30.14,SW,226,0.0,0.0,76,0.00,,,0.00,meteohub,2013-10-14 20:50:00,
2013-10-14 22:55:00,65.8,58.5,30.13,SW,226,0.0,0.0,77,0.00,,,0.00,meteohub,2013-10-14 20:55:00,
2013-10-14 23:00:00,65.7,58.3,30.14,SW,226,0.0,0.0,77,0.00,,,0.00,meteohub,2013-10-14 21:00:00,
2013-10-14 23:02:00,65.7,58.3,30.14,SW,226,0.0,0.0,77,0.00,,,0.00,meteohub,2013-10-14 21:02:00,
2013-10-14 23:07:00,65.7,58.3,30.13,SW,226,0.0,0.0,77,0.00,,,0.00,meteohub,2013-10-14 21:07:00,
2013-10-14 23:12:00,65.5,58.1,30.13,SW,226,0.0,0.0,77,0.00,,,0.00,meteohub,2013-10-14 21:12:00,
2013-10-14 23:17:00,65.1,58.1,30.13,SW,226,0.0,1.0,78,0.00,,,0.00,meteohub,2013-10-14 21:17:00,
2013-10-14 23:22:00,64.9,57.9,30.13,SW,226,0.0,1.0,78,0.00,,,0.00,meteohub,2013-10-14 21:22:00,
2013-10-14 23:27:00,64.8,57.7,30.13,SW,226,1.0,1.0,78,0.00,,,0.00,meteohub,2013-10-14 21:27:00,
2013-10-14 23:32:00,64.6,57.6,30.13,SW,226,0.0,1.0,78,0.00,,,0.00,meteohub,2013-10-14 21:32:00,
2013-10-14 23:37:00,64.2,57.2,30.13,SW,226,0.0,1.0,78,0.00,,,0.00,meteohub,2013-10-14 21:37:00,
2013-10-14 23:42:00,64.0,57.0,30.13,SW,226,0.0,1.0,78,0.00,,,0.00,meteohub,2013-10-14 21:42:00,
2013-10-14 23:47:00,64.0,57.0,30.13,SW,226,0.0,1.0,78,0.00,,,0.00,meteohub,2013-10-14 21:47:00,
2013-10-14 23:52:00,64.0,57.0,30.13,SW,226,0.0,1.0,78,0.00,,,0.00,meteohub,2013-10-14 21:52:00,
2013-10-14 23:57:00,64.0,57.0,30.13,SW,226,0.0,1.0,78,0.00,,,0.00,meteohub,2013-10-14 21:57:00,